Time;durP1;ratioP1;P1;durP2;ratioP2;P2;SDS_P1;SDS_P2;PMS_P1;PMS_P2;Temp;Humidity;BMP_temperature;BMP_pressure;BME280_temperature;BME280_humidity;BME280_pressure;Samples;Min_cycle;Max_cycle;Signal;HPM_P1;HPM_P2
2024/03/30 00:01:57;;;;;;;9.60;2.90;;;;;;;;;;103740;1291;545005;-70
2024/03/30 00:05:35;;;;;;;8.40;2.80;;;;;;;;;;103930;1292;545320;-70
2024/03/30 00:09:13;;;;;;;8.10;2.70;;;;;;;;;;103783;1293;544948;-71
2024/03/30 00:12:49;;;;;;;8.90;2.60;;;;;;;;;;104526;1283;545001;-71
2024/03/30 00:16:27;;;;;;;7.90;2.50;;;;;;;;;;104810;1295;545396;-74
2024/03/30 00:20:05;;;;;;;9.70;3.10;;;;;;;;;;103809;1289;545543;-70
2024/03/30 00:23:42;;;;;;;9.60;3.50;;;;;;;;;;103615;1292;544857;-71
2024/03/30 00:27:20;;;;;;;11.00;2.80;;;;;;;;;;103840;1292;544998;-72
2024/03/30 00:30:57;;;;;;;9.00;3.00;;;;;;;;;;103801;1292;544810;-71
2024/03/30 00:34:35;;;;;;;9.10;2.30;;;;;;;;;;103663;1292;544763;-73
2024/03/30 00:38:13;;;;;;;9.10;3.00;;;;;;;;;;103848;1289;545220;-71
2024/03/30 00:41:52;;;;;;;9.60;2.90;;;;;;;;;;103882;1289;545593;-73
2024/03/30 00:45:27;;;;;;;9.40;2.60;;;;;;;;;;103677;1292;544935;-72
2024/03/30 00:49:04;;;;;;;9.40;2.60;;;;;;;;;;104392;1282;545691;-71
2024/03/30 00:52:42;;;;;;;10.40;2.60;;;;;;;;;;103750;1292;544792;-72
2024/03/30 00:56:30;;;;;;;10.10;3.00;;;;;;;;;;103728;1291;544868;-71
2024/03/30 00:59:57;;;;;;;9.40;2.80;;;;;;;;;;103808;1292;545586;-74
2024/03/30 01:03:34;;;;;;;10.90;2.90;;;;;;;;;;103777;1292;544914;-71
2024/03/30 01:07:15;;;;;;;8.90;2.70;;;;;;;;;;103842;1289;545924;-72
2024/03/30 01:10:58;;;;;;;9.90;2.50;;;;;;;;;;104314;1282;544927;-70
2024/03/30 01:14:28;;;;;;;8.60;2.70;;;;;;;;;;103675;1294;545861;-71
2024/03/30 01:18:08;;;;;;;10.10;2.90;;;;;;;;;;103777;1289;544987;-70
2024/03/30 01:21:45;;;;;;;9.50;3.20;;;;;;;;;;103735;1290;546469;-72
2024/03/30 01:25:20;;;;;;;12.10;3.50;;;;;;;;;;103688;1291;544780;-74
2024/03/30 01:29:02;;;;;;;10.70;3.80;;;;;;;;;;103764;1289;545428;-73
2024/03/30 01:32:35;;;;;;;11.30;4.40;;;;;;;;;;103674;1291;545536;-71
2024/03/30 01:36:12;;;;;;;11.00;4.20;;;;;;;;;;103760;1292;545017;-73
2024/03/30 01:39:58;;;;;;;11.90;4.50;;;;;;;;;;103825;1292;544798;-71
2024/03/30 01:43:29;;;;;;;10.20;3.80;;;;;;;;;;103791;1289;544982;-72
2024/03/30 01:47:18;;;;;;;11.20;4.10;;;;;;;;;;103631;1292;545044;-72
2024/03/30 01:50:46;;;;;;;13.60;4.80;;;;;;;;;;103740;1289;544950;-71
2024/03/30 01:54:23;;;;;;;12.90;6.20;;;;;;;;;;103848;1288;546339;-71
2024/03/30 01:58:00;;;;;;;11.40;4.60;;;;;;;;;;103731;1292;545004;-72
2024/03/30 02:01:35;;;;;;;9.30;3.70;;;;;;;;;;103840;1290;544984;-72
2024/03/30 02:05:15;;;;;;;11.10;3.40;;;;;;;;;;103600;1298;545088;-72
2024/03/30 02:08:50;;;;;;;11.30;4.40;;;;;;;;;;103711;1289;544939;-72
2024/03/30 02:12:28;;;;;;;12.50;5.10;;;;;;;;;;103990;1294;546027;-71
2024/03/30 02:16:04;;;;;;;13.00;5.50;;;;;;;;;;103729;1292;545491;-72
2024/03/30 02:20:04;;;;;;;12.10;5.30;;;;;;;;;;104040;1290;546418;-72
2024/03/30 02:23:19;;;;;;;13.50;5.70;;;;;;;;;;103667;1292;545646;-71
2024/03/30 02:26:56;;;;;;;10.40;4.60;;;;;;;;;;103755;1292;545363;-73
2024/03/30 02:30:34;;;;;;;10.60;4.00;;;;;;;;;;104130;1286;544785;-73
2024/03/30 02:34:12;;;;;;;10.70;3.40;;;;;;;;;;104717;1283;544866;-74
2024/03/30 02:37:46;;;;;;;8.80;3.20;;;;;;;;;;104040;1292;545360;-72
2024/03/30 02:41:27;;;;;;;9.40;3.30;;;;;;;;;;103765;1292;544991;-72
2024/03/30 02:45:05;;;;;;;8.90;2.80;;;;;;;;;;103967;1288;545672;-72
2024/03/30 02:48:41;;;;;;;8.30;3.10;;;;;;;;;;103606;1291;544794;-72
2024/03/30 02:52:19;;;;;;;9.70;3.60;;;;;;;;;;103725;1292;544975;-72
2024/03/30 02:56:00;;;;;;;8.20;2.70;;;;;;;;;;103799;1289;544771;-73
2024/03/30 02:59:34;;;;;;;10.10;3.30;;;;;;;;;;103681;1291;545256;-72
2024/03/30 03:03:14;;;;;;;8.80;3.00;;;;;;;;;;103775;1291;544774;-71
2024/03/30 03:06:49;;;;;;;10.00;2.70;;;;;;;;;;104265;1286;545036;-71
2024/03/30 03:10:30;;;;;;;8.80;3.10;;;;;;;;;;103835;1292;545213;-71
2024/03/30 03:14:04;;;;;;;11.60;3.10;;;;;;;;;;103953;1288;544846;-71
2024/03/30 03:17:50;;;;;;;10.60;2.70;;;;;;;;;;103709;1291;547939;-70
2024/03/30 03:21:19;;;;;;;8.60;2.30;;;;;;;;;;103540;1291;544974;-70
2024/03/30 03:24:56;;;;;;;10.50;2.60;;;;;;;;;;103684;1292;545149;-69
2024/03/30 03:28:43;;;;;;;9.40;2.40;;;;;;;;;;103833;1292;545397;-73
2024/03/30 03:32:35;;;;;;;9.20;2.20;;;;;;;;;;103812;1289;546202;-70
2024/03/30 03:35:51;;;;;;;7.50;2.20;;;;;;;;;;103629;1292;547980;-71
2024/03/30 03:39:26;;;;;;;7.80;2.20;;;;;;;;;;103760;1291;544741;-73
2024/03/30 03:43:04;;;;;;;8.20;2.30;;;;;;;;;;103940;1292;544804;-71
2024/03/30 03:46:44;;;;;;;8.30;2.50;;;;;;;;;;104006;1286;544771;-71
2024/03/30 03:50:21;;;;;;;8.90;2.10;;;;;;;;;;103547;1295;545861;-69
2024/03/30 03:54:03;;;;;;;7.90;2.20;;;;;;;;;;103811;1290;546836;-71
2024/03/30 03:57:33;;;;;;;8.70;2.30;;;;;;;;;;103652;1292;545581;-70
2024/03/30 04:01:14;;;;;;;11.00;2.40;;;;;;;;;;103792;1289;544727;-71
2024/03/30 04:04:54;;;;;;;8.90;2.10;;;;;;;;;;103776;1292;544801;-72
2024/03/30 04:08:31;;;;;;;8.30;1.90;;;;;;;;;;104061;1289;545857;-72
2024/03/30 04:12:04;;;;;;;10.30;2.40;;;;;;;;;;103672;1295;545972;-74
2024/03/30 04:16:02;;;;;;;8.20;2.20;;;;;;;;;;103671;1293;545801;-71
2024/03/30 04:19:19;;;;;;;8.40;2.10;;;;;;;;;;103752;1291;545009;-74
2024/03/30 04:22:56;;;;;;;8.30;2.00;;;;;;;;;;103773;1289;544896;-73
2024/03/30 04:26:36;;;;;;;8.70;1.80;;;;;;;;;;103799;1302;544792;-73
2024/03/30 04:30:11;;;;;;;8.30;2.30;;;;;;;;;;103837;1289;544844;-71
2024/03/30 04:33:48;;;;;;;7.60;2.20;;;;;;;;;;103645;1291;544991;-69
2024/03/30 04:37:26;;;;;;;11.20;2.30;;;;;;;;;;103681;1292;545805;-71
2024/03/30 04:41:13;;;;;;;9.90;2.30;;;;;;;;;;104658;1282;544650;-71
2024/03/30 04:44:46;;;;;;;9.70;2.50;;;;;;;;;;103860;1289;544957;-70
2024/03/30 04:48:21;;;;;;;12.00;2.40;;;;;;;;;;103753;1292;544959;-71
2024/03/30 04:51:56;;;;;;;13.90;2.30;;;;;;;;;;103816;1289;544853;-71
2024/03/30 04:55:35;;;;;;;9.80;2.40;;;;;;;;;;104132;1286;544920;-70
2024/03/30 04:59:10;;;;;;;11.70;2.40;;;;;;;;;;103692;1296;545649;-70
2024/03/30 05:02:49;;;;;;;14.00;2.90;;;;;;;;;;103791;1289;545041;-71
2024/03/30 05:06:26;;;;;;;12.20;2.80;;;;;;;;;;103710;1291;546100;-71
2024/03/30 05:10:04;;;;;;;13.80;2.40;;;;;;;;;;104062;1290;545316;-73
2024/03/30 05:14:05;;;;;;;11.70;2.80;;;;;;;;;;103606;1291;544895;-72
2024/03/30 05:17:19;;;;;;;12.90;3.00;;;;;;;;;;103762;1292;545040;-72
2024/03/30 05:21:00;;;;;;;16.80;3.00;;;;;;;;;;103764;1295;544721;-73
2024/03/30 05:24:34;;;;;;;11.80;3.00;;;;;;;;;;103822;1289;545896;-72
2024/03/30 05:28:11;;;;;;;15.70;3.20;;;;;;;;;;103641;1292;545620;-71
2024/03/30 05:31:45;;;;;;;15.60;2.70;;;;;;;;;;103884;1293;545010;-73
2024/03/30 05:35:25;;;;;;;16.30;3.50;;;;;;;;;;104080;1286;544710;-71
2024/03/30 05:39:03;;;;;;;17.40;3.40;;;;;;;;;;103763;1289;544773;-72
2024/03/30 05:42:40;;;;;;;18.00;3.80;;;;;;;;;;104027;1289;544850;-70
2024/03/30 05:46:22;;;;;;;22.30;4.30;;;;;;;;;;103626;1292;545643;-74
2024/03/30 05:50:00;;;;;;;22.30;4.00;;;;;;;;;;103666;1292;544973;-73
2024/03/30 05:53:35;;;;;;;24.50;4.20;;;;;;;;;;103661;1295;545474;-72
2024/03/30 05:57:11;;;;;;;21.60;4.00;;;;;;;;;;103860;1289;545863;-72
2024/03/30 06:00:48;;;;;;;24.80;4.50;;;;;;;;;;103828;1289;544756;-71
2024/03/30 06:04:36;;;;;;;28.40;4.10;;;;;;;;;;103691;1292;545010;-72
2024/03/30 06:08:07;;;;;;;28.60;4.30;;;;;;;;;;103687;1292;544777;-70
2024/03/30 06:11:43;;;;;;;24.80;4.50;;;;;;;;;;103873;1289;544923;-71
2024/03/30 06:15:21;;;;;;;34.50;5.00;;;;;;;;;;104512;1286;544881;-71
2024/03/30 06:18:55;;;;;;;24.80;4.80;;;;;;;;;;103861;1289;545211;-72
2024/03/30 06:22:40;;;;;;;28.70;5.10;;;;;;;;;;103636;1292;545619;-71
2024/03/30 06:26:10;;;;;;;38.30;6.10;;;;;;;;;;103691;1295;545976;-70
2024/03/30 06:29:55;;;;;;;28.20;5.40;;;;;;;;;;103802;1289;545161;-69
2024/03/30 06:33:27;;;;;;;32.80;5.20;;;;;;;;;;103571;1292;545884;-73
2024/03/30 06:37:03;;;;;;;28.40;4.90;;;;;;;;;;103682;1289;544757;-72
2024/03/30 06:44:18;;;;;;;38.70;6.30;;;;;;;;;;104678;1283;545493;-72
2024/03/30 06:47:55;;;;;;;44.90;6.00;;;;;;;;;;103768;1289;544773;-71
2024/03/30 06:51:34;;;;;;;42.30;6.80;;;;;;;;;;103657;1291;545305;-71
2024/03/30 06:55:10;;;;;;;43.90;6.40;;;;;;;;;;103751;1288;545868;-71
2024/03/30 06:58:49;;;;;;;43.40;7.30;;;;;;;;;;103666;1291;545609;-74
2024/03/30 07:02:25;;;;;;;40.10;6.50;;;;;;;;;;103675;1292;545293;-75
2024/03/30 07:06:03;;;;;;;51.40;7.70;;;;;;;;;;103732;1289;544809;-72
2024/03/30 07:09:36;;;;;;;46.50;7.20;;;;;;;;;;103905;1289;544807;-69
2024/03/30 07:13:18;;;;;;;47.20;7.50;;;;;;;;;;103813;1291;546416;-72
2024/03/30 07:16:55;;;;;;;45.00;7.30;;;;;;;;;;103855;1289;544779;-72
2024/03/30 07:20:33;;;;;;;49.20;8.00;;;;;;;;;;103805;1290;545574;-71
2024/03/30 07:24:10;;;;;;;56.20;8.80;;;;;;;;;;103788;1292;545008;-74
2024/03/30 07:27:48;;;;;;;56.10;8.50;;;;;;;;;;103798;1296;544967;-73
2024/03/30 07:31:27;;;;;;;54.30;8.40;;;;;;;;;;103879;1292;545735;-74
2024/03/30 07:35:03;;;;;;;56.50;9.00;;;;;;;;;;103726;1289;544709;-77
2024/03/30 07:38:40;;;;;;;57.30;9.40;;;;;;;;;;103641;1292;545703;-72
2024/03/30 07:42:18;;;;;;;50.70;8.60;;;;;;;;;;103712;1292;545175;-73
2024/03/30 07:45:59;;;;;;;62.40;9.90;;;;;;;;;;103845;1289;545593;-72
2024/03/30 07:49:33;;;;;;;61.40;10.20;;;;;;;;;;103655;1295;544867;-70
2024/03/30 07:53:10;;;;;;;57.40;10.00;;;;;;;;;;103910;1289;545466;-69
2024/03/30 07:56:57;;;;;;;65.70;9.70;;;;;;;;;;103753;1292;545571;-73
2024/03/30 08:00:25;;;;;;;69.60;10.40;;;;;;;;;;103721;1289;544948;-72
2024/03/30 08:04:05;;;;;;;65.30;10.20;;;;;;;;;;103737;1294;544792;-71
2024/03/30 08:07:40;;;;;;;62.80;11.20;;;;;;;;;;103756;1290;545496;-73
2024/03/30 08:11:17;;;;;;;66.20;10.90;;;;;;;;;;103884;1292;544899;-70
2024/03/30 08:14:55;;;;;;;73.80;12.10;;;;;;;;;;103915;1294;545717;-70
2024/03/30 08:18:28;;;;;;;64.90;10.70;;;;;;;;;;103888;1296;545619;-70
2024/03/30 08:22:10;;;;;;;72.90;11.60;;;;;;;;;;103937;1289;544718;-71
2024/03/30 08:25:48;;;;;;;72.00;11.00;;;;;;;;;;103655;1292;544769;-74
2024/03/30 08:29:24;;;;;;;77.50;11.20;;;;;;;;;;103898;1289;545597;-73
2024/03/30 08:33:02;;;;;;;68.60;11.40;;;;;;;;;;103750;1295;545694;-71
2024/03/30 08:36:43;;;;;;;70.00;12.70;;;;;;;;;;103916;1289;545177;-72
2024/03/30 08:40:17;;;;;;;62.60;11.70;;;;;;;;;;103744;1290;544762;-72
2024/03/30 08:43:54;;;;;;;80.70;13.00;;;;;;;;;;103825;1290;545692;-72
2024/03/30 08:47:32;;;;;;;76.30;11.80;;;;;;;;;;103711;1293;544982;-72
2024/03/30 08:51:09;;;;;;;74.50;11.90;;;;;;;;;;104094;1286;546434;-72
2024/03/30 08:54:47;;;;;;;75.50;11.60;;;;;;;;;;103731;1295;544918;-74
2024/03/30 08:58:25;;;;;;;74.40;12.10;;;;;;;;;;104331;1289;544774;-72
2024/03/30 09:02:03;;;;;;;69.40;12.40;;;;;;;;;;103564;1292;546500;-72
2024/03/30 09:05:39;;;;;;;69.90;12.10;;;;;;;;;;103834;1289;545065;-72
2024/03/30 09:09:17;;;;;;;82.90;13.10;;;;;;;;;;103804;1294;544923;-71
2024/03/30 09:12:54;;;;;;;79.20;12.30;;;;;;;;;;104180;1285;544762;-73
2024/03/30 09:16:32;;;;;;;96.90;14.00;;;;;;;;;;103845;1289;545208;-71
2024/03/30 09:20:09;;;;;;;81.20;13.70;;;;;;;;;;103759;1292;546213;-75
2024/03/30 09:23:47;;;;;;;87.10;13.40;;;;;;;;;;104812;1288;544873;-70
2024/03/30 09:27:25;;;;;;;95.90;14.70;;;;;;;;;;103634;1295;544998;-72
2024/03/30 09:31:12;;;;;;;84.40;13.50;;;;;;;;;;104441;1289;544973;-76
2024/03/30 09:34:39;;;;;;;90.80;14.60;;;;;;;;;;103796;1292;545079;-73
2024/03/30 09:38:17;;;;;;;88.00;13.30;;;;;;;;;;104082;1288;545778;-69
2024/03/30 09:41:54;;;;;;;74.60;12.50;;;;;;;;;;103980;1288;544991;-71
2024/03/30 09:45:32;;;;;;;93.50;13.30;;;;;;;;;;103842;1289;545108;-74
2024/03/30 09:49:10;;;;;;;84.20;12.70;;;;;;;;;;103787;1292;544784;-71
2024/03/30 09:52:48;;;;;;;88.10;14.60;;;;;;;;;;103812;1289;544906;-72
2024/03/30 09:56:25;;;;;;;88.60;14.30;;;;;;;;;;103744;1289;545305;-72
2024/03/30 10:00:03;;;;;;;78.10;12.80;;;;;;;;;;103668;1292;545007;-70
2024/03/30 10:03:38;;;;;;;82.20;13.20;;;;;;;;;;103858;1288;544867;-69
2024/03/30 10:07:20;;;;;;;86.30;13.10;;;;;;;;;;103650;1295;544881;-69
2024/03/30 10:11:00;;;;;;;79.80;12.50;;;;;;;;;;103589;1295;544866;-70
2024/03/30 10:14:33;;;;;;;88.10;12.70;;;;;;;;;;105911;1289;544837;-71
2024/03/30 10:18:05;;;;;;;73.80;12.60;;;;;;;;;;104118;1289;544959;-73
2024/03/30 10:21:47;;;;;;;93.60;14.50;;;;;;;;;;104088;1288;544970;-73
2024/03/30 10:25:20;;;;;;;84.40;13.70;;;;;;;;;;103881;1288;546073;-68
2024/03/30 10:29:03;;;;;;;85.40;13.40;;;;;;;;;;103790;1289;545318;-74
2024/03/30 10:32:40;;;;;;;95.80;13.80;;;;;;;;;;103878;1289;545568;-71
2024/03/30 10:36:16;;;;;;;89.40;13.20;;;;;;;;;;103791;1289;544932;-69
2024/03/30 10:39:53;;;;;;;86.70;13.50;;;;;;;;;;103765;1290;544934;-73
2024/03/30 10:43:34;;;;;;;90.20;12.70;;;;;;;;;;103713;1292;545416;-73
2024/03/30 10:47:09;;;;;;;86.00;15.20;;;;;;;;;;103638;1292;544713;-72
2024/03/30 10:50:46;;;;;;;85.90;13.50;;;;;;;;;;103798;1289;544975;-72
2024/03/30 10:54:24;;;;;;;81.50;12.50;;;;;;;;;;103814;1292;545737;-74
2024/03/30 10:58:01;;;;;;;86.60;13.50;;;;;;;;;;103836;1289;545640;-71
2024/03/30 11:01:39;;;;;;;81.10;12.30;;;;;;;;;;103625;1295;545101;-72
2024/03/30 11:05:17;;;;;;;86.80;13.90;;;;;;;;;;103747;1292;544840;-73
2024/03/30 11:08:54;;;;;;;80.70;12.80;;;;;;;;;;103843;1289;544886;-70
2024/03/30 11:12:33;;;;;;;71.70;12.90;;;;;;;;;;103610;1291;545616;-75
2024/03/30 11:16:10;;;;;;;74.30;13.70;;;;;;;;;;103781;1292;545941;-69
2024/03/30 11:20:06;;;;;;;73.90;12.70;;;;;;;;;;103779;1295;545498;-72
2024/03/30 11:23:31;;;;;;;75.20;12.70;;;;;;;;;;103923;1292;544935;-72
2024/03/30 11:27:05;;;;;;;70.70;12.30;;;;;;;;;;103682;1291;545893;-71
2024/03/30 11:30:50;;;;;;;80.60;12.90;;;;;;;;;;104244;1289;545712;-73
2024/03/30 11:34:26;;;;;;;77.90;13.40;;;;;;;;;;103981;1289;544999;-72
2024/03/30 11:37:59;;;;;;;83.20;13.50;;;;;;;;;;103790;1292;544874;-71
2024/03/30 11:41:32;;;;;;;77.50;12.90;;;;;;;;;;103647;1294;545058;-69
2024/03/30 11:45:11;;;;;;;77.00;12.40;;;;;;;;;;104260;1286;545564;-71
2024/03/30 11:48:46;;;;;;;74.10;12.40;;;;;;;;;;103648;1293;545723;-70
2024/03/30 11:52:23;;;;;;;80.10;12.50;;;;;;;;;;103805;1289;544868;-71
2024/03/30 11:56:01;;;;;;;79.00;10.90;;;;;;;;;;103706;1291;545051;-68
2024/03/30 11:59:39;;;;;;;70.80;11.60;;;;;;;;;;103766;1289;544899;-69
2024/03/30 12:03:17;;;;;;;79.30;11.70;;;;;;;;;;103714;1292;545000;-73
2024/03/30 12:06:55;;;;;;;66.10;10.90;;;;;;;;;;103617;1290;545375;-73
2024/03/30 12:10:31;;;;;;;65.60;11.10;;;;;;;;;;103650;1292;546661;-70
2024/03/30 12:14:09;;;;;;;72.00;11.80;;;;;;;;;;103796;1289;545239;-70
2024/03/30 12:17:46;;;;;;;71.10;11.20;;;;;;;;;;103721;1289;544975;-69
2024/03/30 12:21:23;;;;;;;73.00;11.90;;;;;;;;;;103739;1292;544797;-75
2024/03/30 12:25:25;;;;;;;77.60;12.10;;;;;;;;;;103649;1294;549220;-78
2024/03/30 12:28:38;;;;;;;65.10;11.80;;;;;;;;;;103742;1292;545525;-74
2024/03/30 12:32:15;;;;;;;74.00;11.70;;;;;;;;;;103924;1288;546104;-71
2024/03/30 12:35:53;;;;;;;70.20;11.50;;;;;;;;;;103517;1292;544864;-71
2024/03/30 12:39:34;;;;;;;69.70;12.00;;;;;;;;;;103688;1292;544779;-72
2024/03/30 12:43:11;;;;;;;68.20;11.20;;;;;;;;;;103760;1290;545615;-69
2024/03/30 12:46:47;;;;;;;61.50;10.90;;;;;;;;;;104071;1289;545083;-74
2024/03/30 12:50:36;;;;;;;74.80;11.60;;;;;;;;;;103757;1289;544771;-75
2024/03/30 12:54:02;;;;;;;65.10;10.60;;;;;;;;;;103707;1292;545170;-72
2024/03/30 12:57:34;;;;;;;57.00;10.70;;;;;;;;;;103807;1289;544944;-74
2024/03/30 13:01:17;;;;;;;61.40;11.30;;;;;;;;;;103832;1289;545287;-71
2024/03/30 13:04:53;;;;;;;69.30;11.30;;;;;;;;;;103810;1292;545142;-74
2024/03/30 13:08:31;;;;;;;73.00;10.80;;;;;;;;;;104011;1289;545057;-73
2024/03/30 13:12:09;;;;;;;69.00;10.70;;;;;;;;;;103766;1289;544755;-71
2024/03/30 13:15:45;;;;;;;66.20;11.10;;;;;;;;;;103653;1292;544972;-71
2024/03/30 13:19:23;;;;;;;58.70;10.10;;;;;;;;;;103817;1289;546384;-72
2024/03/30 13:23:04;;;;;;;57.70;10.80;;;;;;;;;;103834;1292;545052;-71
2024/03/30 13:26:38;;;;;;;62.60;10.10;;;;;;;;;;103741;1292;544759;-70
2024/03/30 13:30:16;;;;;;;58.80;9.60;;;;;;;;;;103680;1291;544936;-70
2024/03/30 13:34:15;;;;;;;62.50;10.90;;;;;;;;;;103750;1294;547962;-77
2024/03/30 13:37:32;;;;;;;61.40;9.70;;;;;;;;;;103736;1291;545627;-71
2024/03/30 13:41:06;;;;;;;54.50;9.40;;;;;;;;;;103775;1293;545119;-71
2024/03/30 13:44:45;;;;;;;55.90;9.20;;;;;;;;;;103723;1291;545671;-73
2024/03/30 13:48:23;;;;;;;53.60;8.70;;;;;;;;;;103791;1288;544744;-72
2024/03/30 13:52:00;;;;;;;49.90;8.90;;;;;;;;;;104455;1282;545413;-72
2024/03/30 13:55:37;;;;;;;57.90;8.30;;;;;;;;;;103732;1291;545879;-71
2024/03/30 13:59:16;;;;;;;40.70;7.10;;;;;;;;;;103970;1289;544978;-71
2024/03/30 14:02:53;;;;;;;47.80;7.50;;;;;;;;;;103864;1292;544803;-70
2024/03/30 14:06:27;;;;;;;51.20;8.30;;;;;;;;;;104003;1288;545138;-72
2024/03/30 14:10:04;;;;;;;48.90;8.20;;;;;;;;;;103905;1287;544764;-72
2024/03/30 14:13:45;;;;;;;44.20;7.50;;;;;;;;;;103785;1292;544709;-73
2024/03/30 14:17:23;;;;;;;46.90;8.20;;;;;;;;;;103776;1290;545071;-73
2024/03/30 14:21:00;;;;;;;52.40;8.30;;;;;;;;;;103892;1289;545311;-71
2024/03/30 14:24:38;;;;;;;41.90;7.20;;;;;;;;;;103754;1293;544717;-71
2024/03/30 14:28:15;;;;;;;44.00;7.00;;;;;;;;;;103810;1289;545367;-71
2024/03/30 14:32:00;;;;;;;40.20;7.40;;;;;;;;;;103771;1294;544987;-71
2024/03/30 14:35:31;;;;;;;46.40;6.70;;;;;;;;;;103820;1289;545096;-71
2024/03/30 14:39:09;;;;;;;47.30;7.20;;;;;;;;;;103752;1291;545954;-72
2024/03/30 14:42:45;;;;;;;43.20;6.70;;;;;;;;;;103911;1289;545631;-70
2024/03/30 14:46:24;;;;;;;34.60;5.90;;;;;;;;;;103839;1302;544909;-73
2024/03/30 14:50:00;;;;;;;38.00;6.10;;;;;;;;;;103605;1291;545017;-73
2024/03/30 14:53:37;;;;;;;49.40;13.50;;;;;;;;;;103797;1295;545715;-71
2024/03/30 14:57:16;;;;;;;39.20;9.50;;;;;;;;;;103721;1292;546154;-72
2024/03/30 15:00:53;;;;;;;36.60;7.70;;;;;;;;;;103811;1289;544990;-71
2024/03/30 15:04:31;;;;;;;37.20;6.50;;;;;;;;;;103953;1289;545624;-71
2024/03/30 15:08:08;;;;;;;39.30;7.30;;;;;;;;;;103703;1289;544970;-72
2024/03/30 15:11:46;;;;;;;38.90;6.60;;;;;;;;;;103854;1302;545221;-71
2024/03/30 15:15:19;;;;;;;35.70;6.20;;;;;;;;;;103861;1289;544899;-72
2024/03/30 15:19:00;;;;;;;32.40;6.40;;;;;;;;;;103576;1292;545478;-71
2024/03/30 15:22:37;;;;;;;30.40;4.90;;;;;;;;;;103826;1289;544742;-71
2024/03/30 15:26:18;;;;;;;35.00;6.20;;;;;;;;;;103699;1291;545784;-69
2024/03/30 15:33:30;;;;;;;33.50;5.50;;;;;;;;;;103693;1289;545184;-74
2024/03/30 15:37:07;;;;;;;37.40;5.40;;;;;;;;;;103543;1298;547880;-73
2024/03/30 15:40:45;;;;;;;37.30;6.50;;;;;;;;;;103749;1292;545051;-72
2024/03/30 15:44:25;;;;;;;36.20;6.00;;;;;;;;;;103755;1289;545052;-73
2024/03/30 15:48:03;;;;;;;37.40;6.30;;;;;;;;;;103806;1291;545155;-73
2024/03/30 15:51:38;;;;;;;31.70;5.90;;;;;;;;;;103713;1292;544954;-71
2024/03/30 15:55:15;;;;;;;32.10;6.10;;;;;;;;;;103716;1292;545413;-72
2024/03/30 15:58:48;;;;;;;34.10;7.00;;;;;;;;;;103986;1302;545470;-73
2024/03/30 16:02:31;;;;;;;31.50;6.90;;;;;;;;;;103691;1292;544933;-71
2024/03/30 16:06:08;;;;;;;35.00;6.40;;;;;;;;;;103799;1289;544863;-69
2024/03/30 16:09:45;;;;;;;43.90;6.30;;;;;;;;;;103732;1290;545943;-77
2024/03/30 16:13:23;;;;;;;35.60;6.40;;;;;;;;;;103822;1289;545537;-74
2024/03/30 16:17:00;;;;;;;40.50;6.10;;;;;;;;;;103603;1292;544777;-71
2024/03/30 16:20:33;;;;;;;38.80;6.90;;;;;;;;;;103664;1294;544787;-72
2024/03/30 16:24:15;;;;;;;42.30;6.70;;;;;;;;;;103615;1292;546563;-76
2024/03/30 16:27:52;;;;;;;41.70;7.30;;;;;;;;;;104496;1289;545444;-72
2024/03/30 16:31:26;;;;;;;34.00;5.90;;;;;;;;;;103868;1290;544604;-71
2024/03/30 16:35:07;;;;;;;38.90;6.90;;;;;;;;;;103809;1292;545111;-70
2024/03/30 16:38:45;;;;;;;32.40;5.70;;;;;;;;;;103848;1292;545152;-70
2024/03/30 16:42:18;;;;;;;40.40;6.90;;;;;;;;;;104074;1291;545419;-74
2024/03/30 16:46:01;;;;;;;44.70;6.70;;;;;;;;;;103994;1295;545419;-71
2024/03/30 16:49:33;;;;;;;38.20;6.90;;;;;;;;;;104073;1289;545041;-69
2024/03/30 16:53:15;;;;;;;39.70;7.80;;;;;;;;;;103766;1289;545548;-71
2024/03/30 16:56:52;;;;;;;39.10;6.70;;;;;;;;;;103824;1289;544849;-74
2024/03/30 17:00:30;;;;;;;43.60;7.70;;;;;;;;;;103686;1292;544947;-70
2024/03/30 17:04:15;;;;;;;44.40;7.70;;;;;;;;;;103892;1290;547940;-73
2024/03/30 17:07:45;;;;;;;38.40;7.10;;;;;;;;;;103729;1292;545626;-70
2024/03/30 17:11:22;;;;;;;40.90;6.90;;;;;;;;;;103897;1289;545017;-70
2024/03/30 17:15:00;;;;;;;42.50;6.70;;;;;;;;;;103843;1289;544949;-72
2024/03/30 17:18:37;;;;;;;33.20;6.00;;;;;;;;;;103844;1291;544979;-69
2024/03/30 17:22:15;;;;;;;36.80;5.50;;;;;;;;;;103852;1289;545899;-69
2024/03/30 17:25:49;;;;;;;42.90;6.60;;;;;;;;;;103866;1292;545604;-70
2024/03/30 17:29:30;;;;;;;44.70;6.30;;;;;;;;;;103801;1293;544750;-70
2024/03/30 17:33:07;;;;;;;42.70;5.60;;;;;;;;;;103835;1289;544942;-70
2024/03/30 17:36:46;;;;;;;44.00;6.60;;;;;;;;;;103851;1292;545097;-70
2024/03/30 17:40:51;;;;;;;46.30;6.80;;;;;;;;;;103782;1292;547832;-71
2024/03/30 17:44:00;;;;;;;40.60;6.50;;;;;;;;;;104863;1291;544957;-69
2024/03/30 17:47:33;;;;;;;45.00;6.50;;;;;;;;;;103744;1295;544867;-69
2024/03/30 17:51:12;;;;;;;47.70;7.00;;;;;;;;;;103860;1289;545075;-69
2024/03/30 17:54:52;;;;;;;45.10;6.60;;;;;;;;;;103651;1290;544844;-69
2024/03/30 17:58:30;;;;;;;47.30;6.80;;;;;;;;;;103371;1295;544832;-70
2024/03/30 18:02:09;;;;;;;44.30;6.80;;;;;;;;;;103679;1291;546416;-71
2024/03/30 18:05:45;;;;;;;47.50;6.90;;;;;;;;;;103715;1289;545232;-70
2024/03/30 18:09:18;;;;;;;46.30;6.30;;;;;;;;;;104142;1286;545589;-74
2024/03/30 18:13:00;;;;;;;54.40;8.80;;;;;;;;;;103819;1289;545034;-70
2024/03/30 18:17:17;;;;;;;55.80;9.20;;;;;;;;;;103638;1291;547952;-70
2024/03/30 18:20:15;;;;;;;50.10;8.00;;;;;;;;;;103640;1292;545542;-69
2024/03/30 18:23:52;;;;;;;49.30;7.90;;;;;;;;;;103678;1292;545474;-70
2024/03/30 18:27:25;;;;;;;51.60;7.90;;;;;;;;;;103701;1292;545233;-74
2024/03/30 18:31:16;;;;;;;51.30;7.90;;;;;;;;;;103790;1289;545627;-69
2024/03/30 18:34:45;;;;;;;45.60;7.60;;;;;;;;;;104143;1288;545115;-69
2024/03/30 18:38:22;;;;;;;58.60;8.10;;;;;;;;;;103653;1293;545262;-71
2024/03/30 18:42:15;;;;;;;52.80;8.80;;;;;;;;;;103728;1294;548135;-76
2024/03/30 18:45:38;;;;;;;64.20;10.00;;;;;;;;;;103744;1292;544721;-73
2024/03/30 18:49:14;;;;;;;63.20;8.90;;;;;;;;;;103628;1291;544971;-76
2024/03/30 18:52:52;;;;;;;54.80;9.10;;;;;;;;;;103817;1292;545266;-73
2024/03/30 18:56:29;;;;;;;54.80;8.10;;;;;;;;;;103858;1289;544952;-71
2024/03/30 19:00:10;;;;;;;56.80;9.40;;;;;;;;;;104667;1288;545048;-73
2024/03/30 19:03:45;;;;;;;45.70;8.10;;;;;;;;;;103658;1291;545563;-71
2024/03/30 19:07:21;;;;;;;52.90;8.40;;;;;;;;;;103706;1290;545960;-71
2024/03/30 19:11:03;;;;;;;51.70;7.80;;;;;;;;;;103655;1292;544724;-72
2024/03/30 19:14:38;;;;;;;54.40;8.20;;;;;;;;;;103656;1292;546015;-73
2024/03/30 19:18:15;;;;;;;54.70;8.00;;;;;;;;;;103479;1289;545337;-68
2024/03/30 19:21:57;;;;;;;59.00;8.60;;;;;;;;;;103690;1302;547985;-69
2024/03/30 19:25:29;;;;;;;47.50;7.80;;;;;;;;;;103890;1289;544987;-71
2024/03/30 19:29:06;;;;;;;50.60;8.00;;;;;;;;;;103813;1289;544857;-71
2024/03/30 19:32:48;;;;;;;51.40;8.50;;;;;;;;;;103760;1291;546192;-71
2024/03/30 19:36:21;;;;;;;57.70;9.00;;;;;;;;;;103778;1291;544905;-75
2024/03/30 19:39:59;;;;;;;59.30;9.70;;;;;;;;;;103741;1290;544801;-71
2024/03/30 19:43:33;;;;;;;56.70;9.50;;;;;;;;;;103790;1292;545622;-69
2024/03/30 19:47:16;;;;;;;79.20;11.40;;;;;;;;;;103628;1292;546050;-76
2024/03/30 19:51:04;;;;;;;57.40;11.30;;;;;;;;;;103883;1291;544888;-69
2024/03/30 19:54:29;;;;;;;57.90;9.30;;;;;;;;;;103847;1295;544817;-71
2024/03/30 19:58:12;;;;;;;63.70;9.80;;;;;;;;;;103683;1292;547105;-73
2024/03/30 20:01:44;;;;;;;54.80;9.90;;;;;;;;;;104724;1279;545859;-71
2024/03/30 20:05:25;;;;;;;54.70;9.40;;;;;;;;;;103788;1292;545318;-72
2024/03/30 20:08:59;;;;;;;57.20;10.80;;;;;;;;;;103734;1292;544815;-72
2024/03/30 20:13:02;;;;;;;59.50;11.20;;;;;;;;;;103662;1303;545187;-73
2024/03/30 20:16:15;;;;;;;58.30;10.10;;;;;;;;;;104353;1285;545249;-69
2024/03/30 20:19:51;;;;;;;54.80;10.70;;;;;;;;;;103675;1292;545024;-72
2024/03/30 20:23:30;;;;;;;55.40;9.90;;;;;;;;;;103759;1292;544906;-71
2024/03/30 20:27:13;;;;;;;61.70;9.40;;;;;;;;;;104051;1288;544975;-72
2024/03/30 20:30:52;;;;;;;56.10;9.80;;;;;;;;;;103683;1292;544944;-71
2024/03/30 20:34:21;;;;;;;53.90;10.30;;;;;;;;;;103735;1292;544761;-72
2024/03/30 20:38:00;;;;;;;52.70;10.40;;;;;;;;;;103842;1290;545504;-71
2024/03/30 20:41:37;;;;;;;53.90;10.80;;;;;;;;;;103611;1292;545076;-71
2024/03/30 20:45:14;;;;;;;60.20;11.20;;;;;;;;;;104017;1288;545070;-70
2024/03/30 20:48:51;;;;;;;59.60;10.30;;;;;;;;;;103752;1291;544924;-70